createdAt,value
2018-07-14T19:26:42.914Z,37.80
2018-07-14T19:29:10.684Z,38.10
2018-07-14T19:31:38.591Z,38.30
2018-07-14T19:34:06.926Z,38.20
2018-07-14T19:36:35.190Z,38.70
2018-07-14T19:39:04.252Z,39.00
2018-07-14T19:41:32.544Z,39.00
2018-07-14T19:44:00.994Z,39.20
2018-07-14T19:46:29.136Z,39.50
2018-07-14T19:48:57.258Z,39.80
2018-07-14T19:51:25.058Z,39.90
2018-07-14T19:53:52.772Z,39.80
2018-07-14T19:56:21.548Z,39.90
2018-07-14T19:58:49.795Z,40.00
2018-07-14T20:01:17.696Z,39.80
2018-07-14T20:03:45.496Z,39.90
2018-07-14T20:06:13.348Z,40.10
2018-07-14T20:08:41.210Z,40.10
2018-07-14T20:11:09.561Z,40.10
2018-07-14T20:13:37.330Z,40.00
2018-07-14T20:16:05.404Z,39.90
2018-07-14T20:18:33.827Z,40.30
2018-07-14T20:21:01.745Z,40.40
2018-07-14T20:23:30.710Z,40.50
2018-07-14T20:25:58.494Z,41.00
2018-07-14T20:28:26.687Z,41.70
2018-07-14T20:30:54.469Z,41.80
2018-07-14T20:33:22.247Z,41.90
2018-07-14T20:35:50.195Z,42.00
2018-07-14T20:38:17.959Z,42.00
2018-07-14T20:40:45.730Z,41.90
2018-07-14T20:43:13.475Z,42.00
2018-07-14T20:45:41.334Z,41.90
2018-07-14T20:48:09.115Z,41.80
2018-07-14T20:50:37.183Z,42.00
2018-07-14T20:53:05.571Z,41.80
2018-07-14T20:55:33.682Z,41.80
2018-07-14T20:58:01.403Z,41.80
2018-07-14T21:00:29.142Z,41.90
2018-07-14T21:02:56.983Z,42.00
2018-07-14T21:05:24.810Z,41.80
2018-07-14T21:07:53.138Z,42.30
2018-07-14T21:10:21.642Z,42.40
2018-07-14T21:12:50.319Z,42.70
2018-07-14T21:15:18.543Z,42.80
2018-07-14T21:17:46.489Z,43.20
2018-07-14T21:20:14.364Z,43.40
2018-07-14T21:22:42.068Z,43.70
2018-07-14T21:25:09.879Z,44.10
2018-07-14T21:27:37.666Z,44.60
2018-07-14T21:30:05.592Z,44.90
2018-07-14T21:32:33.393Z,45.30
2018-07-14T21:35:01.223Z,45.40
2018-07-14T21:37:29.001Z,45.50
2018-07-14T21:39:56.749Z,46.10
2018-07-14T21:42:24.552Z,46.20
2018-07-14T21:44:52.351Z,46.20
2018-07-14T21:47:20.194Z,47.10
2018-07-14T21:49:47.978Z,47.00
2018-07-14T21:52:15.687Z,47.50
2018-07-14T21:54:43.446Z,49.90
2018-07-14T21:57:11.181Z,50.40
2018-07-14T21:59:38.956Z,48.70
2018-07-14T22:02:06.862Z,48.00
2018-07-14T22:04:35.271Z,48.70
2018-07-14T22:07:03.073Z,49.10
2018-07-14T22:09:30.970Z,49.10
2018-07-14T22:11:58.781Z,49.00
2018-07-14T22:14:26.623Z,48.30
2018-07-14T22:16:54.435Z,48.10
2018-07-14T22:19:22.243Z,47.70
2018-07-14T22:24:17.697Z,47.20
2018-07-14T22:29:13.150Z,47.60
2018-07-14T22:31:40.930Z,48.60
2018-07-14T22:34:08.788Z,48.90
2018-07-14T22:36:36.638Z,48.70
2018-07-14T22:39:05.943Z,48.40
2018-07-14T22:41:33.738Z,48.30
2018-07-14T22:44:01.566Z,48.10
2018-07-14T22:46:29.319Z,48.40
2018-07-14T22:48:57.062Z,48.40
2018-07-14T22:51:24.969Z,48.60
2018-07-14T22:53:52.775Z,48.60
2018-07-14T22:56:20.489Z,49.00
2018-07-14T22:58:48.498Z,49.30
2018-07-14T23:01:16.252Z,49.40
2018-07-14T23:03:43.980Z,49.40
2018-07-14T23:06:11.714Z,49.40
2018-07-14T23:08:39.454Z,49.80
2018-07-14T23:11:07.535Z,49.90
2018-07-14T23:13:35.319Z,49.80
2018-07-14T23:16:03.166Z,49.70
2018-07-14T23:20:59.474Z,50.10
2018-07-14T23:23:27.224Z,50.20
2018-07-14T23:25:54.984Z,50.30
2018-07-14T23:28:22.754Z,50.40
2018-07-14T23:30:50.554Z,50.50
2018-07-14T23:33:18.355Z,50.40
2018-07-14T23:35:46.110Z,50.40
2018-07-14T23:38:13.811Z,50.50
2018-07-14T23:40:41.562Z,50.70
2018-07-14T23:43:09.295Z,50.60
2018-07-14T23:45:37.069Z,50.70
2018-07-14T23:48:04.872Z,50.90
2018-07-14T23:50:32.627Z,50.90
2018-07-14T23:53:00.407Z,51.10
2018-07-14T23:55:28.298Z,51.10
2018-07-14T23:57:56.101Z,51.10
